createdAt,value
2023-02-27T00:01:10.616Z,16.10
2023-02-27T00:03:41.034Z,4.15
2023-02-27T00:06:07.739Z,3.33
2023-02-27T00:08:34.434Z,5.25
2023-02-27T00:11:01.198Z,3.72
2023-02-27T00:13:27.830Z,3.42
2023-02-27T00:15:56.459Z,3.97
2023-02-27T00:18:23.658Z,3.85
2023-02-27T00:21:10.552Z,3.75
2023-02-27T00:23:37.546Z,6.43
2023-02-27T00:26:04.332Z,3.30
2023-02-27T00:28:33.898Z,9.68
2023-02-27T00:31:13.671Z,7.15
2023-02-27T00:33:40.435Z,11.98
2023-02-27T00:36:07.118Z,4.07
2023-02-27T00:38:42.331Z,3.20
2023-02-27T00:41:09.022Z,3.20
2023-02-27T00:43:41.561Z,3.42
2023-02-27T00:46:12.615Z,6.00
2023-02-27T00:48:45.841Z,4.13
2023-02-27T00:51:13.517Z,7.28
2023-02-27T00:53:40.233Z,2.65
2023-02-27T00:56:13.377Z,3.35
2023-02-27T00:58:40.771Z,3.35
2023-02-27T01:01:08.988Z,6.07
2023-02-27T01:03:35.647Z,3.40
2023-02-27T01:06:02.316Z,2.47
2023-02-27T01:08:31.225Z,59.15
2023-02-27T01:11:00.928Z,2.75
2023-02-27T01:13:27.563Z,3.40
2023-02-27T01:15:59.367Z,3.30
2023-02-27T01:18:27.866Z,5.35
2023-02-27T01:21:16.532Z,6.28
2023-02-27T01:23:43.180Z,6.78
2023-02-27T01:26:09.966Z,16.58
2023-02-27T01:28:39.509Z,19.98
2023-02-27T01:31:14.188Z,33.08
2023-02-27T01:33:40.933Z,6.15
2023-02-27T01:36:14.739Z,15.57
2023-02-27T01:38:41.372Z,34.60
2023-02-27T01:41:13.906Z,33.25
2023-02-27T01:44:08.871Z,25.58
2023-02-27T01:46:42.468Z,29.17
2023-02-27T01:49:20.990Z,9.30
2023-02-27T01:52:03.200Z,3.88
2023-02-27T01:54:32.572Z,6.72
2023-02-27T01:57:11.356Z,6.30
2023-02-27T01:59:44.862Z,30.65
2023-02-27T02:02:26.628Z,9.48
2023-02-27T02:04:57.707Z,42.40
2023-02-27T02:07:31.981Z,26.27
2023-02-27T02:10:00.493Z,34.85
2023-02-27T02:12:30.594Z,33.58
2023-02-27T02:14:57.281Z,33.35
2023-02-27T02:18:09.193Z,26.40
2023-02-27T02:20:45.016Z,33.53
2023-02-27T02:23:36.294Z,32.25
2023-02-27T02:26:22.036Z,24.92
2023-02-27T02:29:14.484Z,31.85
2023-02-27T02:32:14.886Z,29.00
2023-02-27T02:35:08.607Z,27.23
2023-02-27T02:40:46.300Z,33.90
2023-02-27T02:43:36.807Z,31.95
2023-02-27T02:46:27.494Z,28.17
2023-02-27T02:49:25.707Z,33.78
2023-02-27T02:51:57.754Z,31.70
2023-02-27T02:54:32.835Z,31.63
2023-02-27T02:57:09.690Z,32.83
2023-02-27T03:00:13.774Z,32.85
2023-02-27T03:02:51.587Z,26.45
2023-02-27T03:05:27.893Z,31.52
2023-02-27T03:08:04.741Z,31.98
2023-02-27T03:10:44.528Z,32.13
2023-02-27T03:13:36.281Z,29.95
2023-02-27T03:16:12.193Z,25.80
2023-02-27T03:18:56.540Z,26.30
2023-02-27T03:21:43.044Z,26.77
2023-02-27T03:24:14.342Z,27.70
2023-02-27T03:26:52.865Z,32.92
2023-02-27T03:29:26.721Z,31.17
2023-02-27T03:32:19.458Z,32.65
2023-02-27T03:34:46.274Z,31.85
2023-02-27T03:37:42.988Z,31.38
2023-02-27T03:40:28.759Z,31.95
2023-02-27T03:43:23.772Z,32.10
2023-02-27T03:45:55.840Z,25.27
2023-02-27T03:48:25.937Z,26.90
2023-02-27T03:51:10.644Z,24.55
2023-02-27T03:54:02.791Z,32.53
2023-02-27T03:56:39.880Z,26.55
2023-02-27T03:59:08.612Z,26.23
2023-02-27T04:01:51.303Z,26.92
2023-02-27T04:04:19.556Z,31.63
2023-02-27T04:07:17.249Z,33.78
2023-02-27T04:10:05.309Z,31.83
2023-02-27T04:12:47.131Z,28.08
2023-02-27T04:15:41.520Z,26.35
2023-02-27T04:18:35.102Z,33.03
2023-02-27T04:24:26.388Z,32.97
2023-02-27T04:27:19.741Z,35.03
2023-02-27T04:29:55.753Z,32.80
2023-02-27T04:32:53.373Z,32.90
2023-02-27T04:35:51.092Z,26.33
2023-02-27T04:38:27.963Z,26.50
2023-02-27T04:41:21.917Z,26.10
2023-02-27T04:43:55.150Z,30.58
2023-02-27T04:46:31.683Z,26.13
2023-02-27T04:49:07.129Z,32.47
2023-02-27T04:51:40.798Z,25.85
2023-02-27T04:54:14.588Z,24.95
2023-02-27T04:56:59.390Z,26.30
2023-02-27T04:59:31.954Z,26.10
2023-02-27T05:02:25.755Z,31.50
2023-02-27T05:05:02.042Z,35.10
2023-02-27T05:07:39.905Z,29.90
2023-02-27T05:10:14.596Z,33.00
2023-02-27T05:12:59.632Z,26.25
2023-02-27T05:15:33.733Z,32.45
2023-02-27T05:18:07.057Z,31.75
2023-02-27T05:21:13.047Z,27.02
2023-02-27T05:23:58.364Z,35.17
2023-02-27T05:26:46.263Z,31.42
2023-02-27T05:29:50.987Z,27.88
2023-02-27T05:32:27.029Z,31.88
2023-02-27T05:35:29.379Z,32.58
2023-02-27T05:38:10.708Z,31.95
2023-02-27T05:40:52.450Z,33.45
2023-02-27T05:43:25.532Z,25.45
2023-02-27T05:45:56.681Z,32.67
2023-02-27T05:48:35.439Z,30.60
2023-02-27T05:51:05.875Z,31.75
2023-02-27T05:53:40.105Z,31.50
2023-02-27T05:56:08.595Z,25.65
2023-02-27T05:58:35.184Z,25.95
2023-02-27T06:01:13.565Z,25.58
2023-02-27T06:03:41.412Z,26.48
2023-02-27T06:06:17.735Z,31.98
2023-02-27T06:08:55.511Z,27.67
2023-02-27T06:11:36.138Z,25.67
2023-02-27T06:14:09.577Z,26.10
2023-02-27T06:16:39.685Z,31.23
2023-02-27T06:19:09.465Z,26.50
2023-02-27T06:21:36.083Z,27.63
2023-02-27T06:24:02.737Z,27.75
2023-02-27T06:26:38.463Z,29.73
2023-02-27T06:29:14.158Z,31.63
2023-02-27T06:31:40.793Z,33.50
2023-02-27T06:34:10.193Z,25.13
2023-02-27T06:36:36.870Z,26.33
2023-02-27T06:39:05.026Z,31.90
2023-02-27T06:41:31.649Z,27.23
2023-02-27T06:43:58.405Z,25.45
2023-02-27T06:46:25.607Z,24.85
2023-02-27T06:48:52.468Z,26.10
2023-02-27T06:51:22.111Z,26.75
2023-02-27T06:53:48.820Z,25.92
2023-02-27T06:56:15.497Z,27.05
2023-02-27T06:58:45.031Z,26.23
2023-02-27T07:01:13.490Z,27.67
2023-02-27T07:03:40.193Z,25.35
2023-02-27T07:06:06.976Z,27.20
2023-02-27T07:09:00.877Z,24.30
2023-02-27T07:11:26.087Z,26.30
2023-02-27T07:13:55.593Z,25.02
2023-02-27T07:16:25.559Z,28.40
2023-02-27T07:18:52.359Z,27.00
2023-02-27T07:21:21.544Z,27.92
2023-02-27T07:23:48.203Z,30.90
2023-02-27T07:26:14.826Z,26.70
2023-02-27T07:28:41.628Z,27.92
2023-02-27T07:31:08.390Z,26.27
2023-02-27T07:33:35.047Z,27.27
2023-02-27T07:36:01.968Z,38.58
2023-02-27T07:38:32.993Z,28.10
2023-02-27T07:40:59.877Z,32.83
2023-02-27T07:43:29.948Z,32.08
2023-02-27T07:45:56.715Z,26.15
2023-02-27T07:48:23.455Z,7.78
2023-02-27T07:50:50.266Z,19.20
2023-02-27T07:53:19.415Z,14.05
2023-02-27T07:55:47.578Z,13.20
2023-02-27T07:58:14.399Z,14.95
2023-02-27T08:00:41.235Z,11.73
2023-02-27T08:03:08.065Z,25.48
2023-02-27T08:05:35.990Z,4.95
2023-02-27T08:10:29.911Z,4.85
2023-02-27T08:13:02.617Z,4.13
2023-02-27T08:15:29.339Z,5.85
2023-02-27T08:17:55.966Z,18.70
2023-02-27T08:20:29.909Z,7.60
2023-02-27T08:22:56.780Z,10.25
2023-02-27T08:25:24.342Z,5.03
2023-02-27T08:27:51.036Z,4.57
2023-02-27T08:30:17.839Z,6.32
2023-02-27T08:32:45.772Z,4.78
2023-02-27T08:40:11.142Z,13.05
2023-02-27T08:42:40.941Z,10.57
2023-02-27T08:45:12.456Z,6.20
2023-02-27T08:47:39.220Z,16.25
2023-02-27T08:50:06.446Z,13.60
2023-02-27T08:52:35.885Z,13.40
2023-02-27T08:55:06.181Z,17.30
2023-02-27T08:57:33.867Z,11.13
2023-02-27T09:00:00.714Z,9.73
2023-02-27T09:02:27.571Z,13.07
2023-02-27T09:04:54.333Z,12.68
2023-02-27T09:07:21.307Z,8.05
2023-02-27T09:09:49.930Z,4.00
2023-02-27T09:12:19.074Z,6.45
2023-02-27T09:14:48.716Z,5.00
2023-02-27T09:17:15.524Z,4.03
2023-02-27T09:19:42.555Z,6.80
2023-02-27T09:22:12.238Z,11.80
2023-02-27T09:24:41.927Z,5.07
2023-02-27T09:27:08.561Z,6.35
2023-02-27T09:29:35.273Z,7.88
2023-02-27T09:32:02.112Z,6.30
2023-02-27T09:34:29.867Z,4.43
2023-02-27T09:37:02.166Z,9.80
2023-02-27T09:39:30.055Z,15.02
2023-02-27T09:42:11.879Z,8.27
2023-02-27T09:44:47.411Z,6.10
2023-02-27T09:47:48.146Z,13.05
2023-02-27T09:50:38.557Z,2.45
2023-02-27T09:53:13.289Z,15.77
2023-02-27T09:55:42.506Z,6.82
2023-02-27T09:58:21.260Z,9.98
2023-02-27T10:01:35.213Z,6.28
2023-02-27T10:04:18.690Z,3.28
2023-02-27T10:06:50.515Z,3.55
2023-02-27T10:09:46.397Z,2.13
2023-02-27T10:12:24.238Z,16.73
2023-02-27T10:15:00.304Z,2.75
2023-02-27T10:17:36.918Z,2.75
2023-02-27T10:20:20.526Z,19.33
2023-02-27T10:22:49.145Z,2.88
2023-02-27T10:25:31.205Z,10.57
2023-02-27T10:28:12.508Z,2.42
2023-02-27T10:30:50.460Z,2.22
2023-02-27T10:33:38.777Z,1.88
2023-02-27T10:36:20.598Z,16.73
2023-02-27T10:39:05.826Z,2.38
2023-02-27T10:41:33.226Z,2.88
2023-02-27T10:44:03.396Z,2.35
2023-02-27T10:46:32.649Z,2.08
2023-02-27T10:49:01.883Z,2.38
2023-02-27T10:51:39.150Z,1.80
2023-02-27T10:54:14.694Z,2.00
2023-02-27T10:56:44.954Z,1.88
2023-02-27T10:59:25.581Z,1.98
2023-02-27T11:02:16.004Z,1.88
2023-02-27T11:04:53.990Z,2.30
2023-02-27T11:07:47.702Z,1.63
2023-02-27T11:10:14.401Z,1.73
2023-02-27T11:12:43.200Z,2.33
2023-02-27T11:15:18.236Z,8.20
2023-02-27T11:17:45.054Z,24.83
2023-02-27T11:20:29.818Z,2.20
2023-02-27T11:23:05.431Z,1.73
2023-02-27T11:25:33.768Z,1.65
2023-02-27T11:28:21.438Z,1.48
2023-02-27T11:31:15.301Z,1.23
2023-02-27T11:33:52.629Z,1.25
2023-02-27T11:36:19.761Z,1.27
2023-02-27T11:38:54.547Z,1.10
2023-02-27T11:41:32.256Z,1.52
2023-02-27T11:44:02.150Z,1.65
2023-02-27T11:46:45.874Z,1.13
2023-02-27T11:49:58.130Z,1.80
2023-02-27T11:52:35.786Z,10.27
2023-02-27T11:55:05.995Z,2.20
2023-02-27T11:57:38.635Z,3.38
2023-02-27T12:00:33.230Z,1.08
2023-02-27T12:03:15.242Z,1.88
2023-02-27T12:05:52.196Z,3.60
2023-02-27T12:08:48.255Z,1.52
2023-02-27T12:11:32.168Z,1.27
2023-02-27T12:14:04.729Z,1.13
2023-02-27T12:16:42.449Z,1.60
2023-02-27T12:19:37.820Z,1.55
2023-02-27T12:22:18.868Z,0.93
2023-02-27T12:25:21.078Z,1.33
2023-02-27T12:28:04.871Z,1.10
2023-02-27T12:30:42.555Z,2.30
2023-02-27T12:33:18.315Z,0.93
2023-02-27T12:35:50.018Z,1.40
2023-02-27T12:38:24.475Z,1.15
2023-02-27T12:41:09.350Z,1.13
2023-02-27T12:43:50.853Z,1.20
2023-02-27T12:46:42.295Z,1.08
2023-02-27T12:49:27.262Z,3.67
2023-02-27T12:52:12.173Z,9.48
2023-02-27T12:55:11.338Z,4.88
2023-02-27T12:58:22.394Z,10.68
2023-02-27T13:01:00.900Z,4.53
2023-02-27T13:03:48.938Z,1.05
2023-02-27T13:06:29.759Z,1.15
2023-02-27T13:09:22.426Z,1.70
2023-02-27T13:12:10.971Z,1.65
2023-02-27T13:14:50.767Z,1.77
2023-02-27T13:17:22.131Z,1.83
2023-02-27T13:19:55.370Z,1.88
2023-02-27T13:22:43.911Z,2.00
2023-02-27T13:25:17.661Z,2.70
2023-02-27T13:27:52.585Z,2.28
2023-02-27T13:30:40.142Z,2.17
2023-02-27T13:33:15.961Z,1.92
2023-02-27T13:36:25.969Z,5.35
2023-02-27T13:38:55.249Z,2.88
2023-02-27T13:41:24.832Z,3.25
2023-02-27T13:44:00.023Z,2.55
2023-02-27T13:46:32.207Z,2.10
2023-02-27T13:49:12.497Z,2.58
2023-02-27T13:51:47.196Z,7.03
2023-02-27T13:54:13.860Z,6.68
2023-02-27T13:56:46.304Z,1.48
2023-02-27T13:59:31.724Z,8.27
2023-02-27T14:02:02.088Z,3.65
2023-02-27T14:04:37.723Z,6.13
2023-02-27T14:07:16.169Z,16.05
2023-02-27T14:09:46.641Z,16.15
2023-02-27T14:12:46.721Z,12.80
2023-02-27T14:15:22.217Z,13.70
2023-02-27T14:18:09.836Z,13.07
2023-02-27T14:20:39.100Z,10.82
2023-02-27T14:23:23.792Z,10.32
2023-02-27T14:25:55.959Z,10.13
2023-02-27T14:28:41.237Z,8.55
2023-02-27T14:31:23.547Z,8.88
2023-02-27T14:33:56.010Z,9.30
2023-02-27T14:36:32.758Z,10.30
2023-02-27T14:39:03.660Z,10.23
2023-02-27T14:41:49.700Z,7.93
2023-02-27T14:44:25.063Z,9.70
2023-02-27T14:46:54.836Z,11.30
2023-02-27T14:49:35.706Z,8.02
2023-02-27T14:52:25.043Z,9.93
2023-02-27T14:54:53.651Z,9.43
2023-02-27T14:57:27.087Z,9.30
2023-02-27T14:59:56.392Z,12.02
2023-02-27T15:02:26.269Z,10.32
2023-02-27T15:05:16.967Z,11.93
2023-02-27T15:07:50.555Z,11.70
2023-02-27T15:10:31.175Z,19.20
2023-02-27T15:13:00.056Z,19.33
2023-02-27T15:15:26.933Z,17.73
2023-02-27T15:17:57.625Z,19.35
2023-02-27T15:20:34.324Z,19.50
2023-02-27T15:23:20.716Z,17.38
2023-02-27T15:25:47.569Z,20.38
2023-02-27T15:28:24.415Z,16.00
2023-02-27T15:30:52.787Z,22.52
2023-02-27T15:33:29.489Z,17.38
2023-02-27T15:35:56.923Z,14.90
2023-02-27T15:38:41.400Z,15.93
2023-02-27T15:41:12.219Z,17.33
2023-02-27T15:43:40.822Z,17.35
2023-02-27T15:46:07.840Z,16.60
2023-02-27T15:48:34.840Z,13.77
2023-02-27T15:51:03.822Z,15.43
2023-02-27T15:53:34.197Z,15.55
2023-02-27T15:56:06.185Z,16.17
2023-02-27T15:58:38.950Z,17.77
2023-02-27T16:01:11.697Z,16.45
2023-02-27T16:03:44.175Z,15.38
2023-02-27T16:06:23.586Z,3.78
2023-02-27T16:09:26.130Z,3.85
2023-02-27T16:12:11.848Z,6.55
2023-02-27T16:14:43.876Z,19.02
2023-02-27T16:17:33.214Z,20.58
2023-02-27T16:20:02.575Z,19.25
2023-02-27T16:22:33.472Z,19.42
2023-02-27T16:25:12.026Z,19.17
2023-02-27T16:27:39.664Z,19.55
2023-02-27T16:30:11.644Z,19.65
2023-02-27T16:32:44.298Z,16.88
2023-02-27T16:35:24.053Z,19.35
2023-02-27T16:37:50.861Z,16.65
2023-02-27T16:40:27.285Z,18.10
2023-02-27T16:42:54.117Z,2.25
2023-02-27T16:45:24.516Z,1.95
2023-02-27T16:47:54.781Z,2.63
2023-02-27T16:50:41.174Z,1.92
2023-02-27T16:53:09.059Z,2.25
2023-02-27T16:55:39.829Z,1.95
2023-02-27T16:58:07.191Z,2.22
2023-02-27T17:00:34.276Z,21.92
2023-02-27T17:03:01.466Z,23.67
2023-02-27T17:05:28.718Z,24.45
2023-02-27T17:07:55.394Z,26.23
2023-02-27T17:10:26.382Z,33.17
2023-02-27T17:12:53.538Z,22.80
2023-02-27T17:15:21.774Z,21.10
2023-02-27T17:17:48.368Z,20.67
2023-02-27T17:20:15.339Z,24.83
2023-02-27T17:22:44.146Z,19.75
2023-02-27T17:25:12.118Z,22.15
2023-02-27T17:27:38.760Z,21.08
2023-02-27T17:30:18.765Z,21.73
2023-02-27T17:32:45.554Z,22.35
2023-02-27T17:35:15.870Z,21.67
2023-02-27T17:37:42.557Z,21.25
2023-02-27T17:40:12.488Z,22.05
2023-02-27T17:42:39.563Z,22.90
2023-02-27T17:45:07.782Z,23.65
2023-02-27T17:47:41.037Z,25.50
2023-02-27T17:50:08.112Z,25.23
2023-02-27T17:52:37.885Z,24.17
2023-02-27T17:55:05.953Z,23.30
2023-02-27T17:57:36.487Z,24.58
2023-02-27T18:00:06.383Z,23.88
2023-02-27T18:02:33.237Z,23.00
2023-02-27T18:05:00.130Z,24.08
2023-02-27T18:07:27.451Z,23.98
2023-02-27T18:09:54.317Z,28.88
2023-02-27T18:12:21.012Z,26.60
2023-02-27T18:14:47.704Z,26.67
2023-02-27T18:17:14.496Z,24.25
2023-02-27T18:19:42.816Z,26.40
2023-02-27T18:22:15.224Z,26.05
2023-02-27T18:24:41.873Z,27.25
2023-02-27T18:27:08.722Z,28.90
2023-02-27T18:29:36.641Z,27.52
2023-02-27T18:32:03.525Z,29.13
2023-02-27T18:34:33.315Z,27.27
2023-02-27T18:37:00.004Z,32.15
2023-02-27T18:39:29.663Z,27.73
2023-02-27T18:41:58.580Z,27.40
2023-02-27T18:44:25.626Z,25.77
2023-02-27T18:46:52.342Z,31.95
2023-02-27T18:49:19.056Z,30.38
2023-02-27T18:51:47.883Z,27.00
2023-02-27T18:54:14.918Z,26.95
2023-02-27T18:56:42.106Z,26.90
2023-02-27T18:59:08.834Z,28.30
2023-02-27T19:01:40.242Z,25.05
2023-02-27T19:04:08.236Z,27.95
2023-02-27T19:06:40.686Z,28.80
2023-02-27T19:09:09.106Z,26.10
2023-02-27T19:11:36.238Z,26.55
2023-02-27T19:14:08.812Z,28.52
2023-02-27T19:16:35.848Z,29.02
2023-02-27T19:19:09.647Z,27.48
2023-02-27T19:21:36.423Z,27.83
2023-02-27T19:24:06.972Z,30.00
2023-02-27T19:26:34.810Z,27.48
2023-02-27T19:31:28.725Z,34.72
2023-02-27T19:33:57.812Z,31.02
2023-02-27T19:36:26.229Z,34.78
2023-02-27T19:39:02.045Z,31.40
2023-02-27T19:41:28.688Z,30.38
2023-02-27T19:43:55.415Z,34.08
2023-02-27T19:46:29.824Z,29.60
2023-02-27T19:48:59.832Z,30.13
2023-02-27T19:51:26.981Z,30.75
2023-02-27T19:53:54.299Z,30.10
2023-02-27T19:56:24.067Z,29.98
2023-02-27T19:58:51.650Z,30.17
2023-02-27T20:01:25.399Z,31.08
2023-02-27T20:03:52.744Z,28.48
2023-02-27T20:06:23.307Z,36.40
2023-02-27T20:08:50.792Z,30.25
2023-02-27T20:11:19.743Z,30.15
2023-02-27T20:13:47.775Z,30.45
2023-02-27T20:16:17.387Z,29.98
2023-02-27T20:18:46.638Z,30.42
2023-02-27T20:21:16.688Z,31.85
2023-02-27T20:23:44.927Z,35.00
2023-02-27T20:26:14.625Z,30.95
2023-02-27T20:28:41.612Z,34.47
2023-02-27T20:31:12.858Z,35.50
2023-02-27T20:33:40.736Z,30.25
2023-02-27T20:36:10.348Z,31.10
2023-02-27T20:38:39.190Z,31.17
2023-02-27T20:41:12.415Z,30.17
2023-02-27T20:43:39.574Z,31.17
2023-02-27T20:46:09.196Z,31.67
2023-02-27T20:48:36.072Z,30.45
2023-02-27T20:51:16.730Z,36.22
2023-02-27T20:58:41.353Z,36.45
2023-02-27T21:01:10.818Z,35.95
2023-02-27T21:03:39.836Z,29.73
2023-02-27T21:06:09.033Z,28.92
2023-02-27T21:08:40.304Z,31.02
2023-02-27T21:11:15.425Z,37.00
2023-02-27T21:13:42.336Z,32.08
2023-02-27T21:16:11.055Z,29.73
2023-02-27T21:18:38.446Z,33.70
2023-02-27T21:21:08.191Z,35.45
2023-02-27T21:23:41.329Z,29.90
2023-02-27T21:26:38.769Z,29.85
2023-02-27T21:29:16.794Z,37.65
2023-02-27T21:31:45.805Z,30.70
2023-02-27T21:34:16.022Z,31.75
2023-02-27T21:36:43.999Z,36.03
2023-02-27T21:39:16.473Z,35.20
2023-02-27T21:41:43.706Z,39.90
2023-02-27T21:44:16.519Z,30.33
2023-02-27T21:46:44.233Z,40.05
2023-02-27T21:49:23.562Z,31.60
2023-02-27T21:51:51.161Z,31.73
2023-02-27T21:54:19.009Z,32.08
2023-02-27T21:56:49.413Z,35.60
2023-02-27T21:59:17.337Z,31.10
2023-02-27T22:01:47.531Z,31.75
2023-02-27T22:04:19.606Z,36.60
2023-02-27T22:06:47.628Z,30.70
2023-02-27T22:09:14.261Z,30.55
2023-02-27T22:11:41.284Z,31.25
2023-02-27T22:14:09.476Z,36.22
2023-02-27T22:16:36.718Z,36.95
2023-02-27T22:19:12.808Z,30.58
2023-02-27T22:21:39.833Z,36.15
2023-02-27T22:24:07.536Z,28.77
2023-02-27T22:26:34.965Z,31.63
2023-02-27T22:29:02.172Z,31.58
2023-02-27T22:31:34.957Z,29.85
2023-02-27T22:34:13.194Z,29.58
2023-02-27T22:36:41.849Z,28.17
2023-02-27T22:39:08.661Z,29.33
2023-02-27T22:41:37.812Z,30.08
2023-02-27T22:44:05.799Z,28.55
2023-02-27T22:46:40.350Z,35.42
2023-02-27T22:49:13.832Z,35.13
2023-02-27T22:51:43.941Z,28.70
2023-02-27T22:54:20.573Z,33.53
2023-02-27T22:56:57.825Z,28.52
2023-02-27T22:59:25.652Z,35.22
2023-02-27T23:01:52.509Z,26.73
2023-02-27T23:04:19.359Z,24.60
2023-02-27T23:06:46.297Z,26.33
2023-02-27T23:09:18.720Z,25.92
2023-02-27T23:11:54.736Z,29.02
2023-02-27T23:14:23.164Z,26.38
2023-02-27T23:16:50.835Z,29.55
2023-02-27T23:19:23.133Z,26.58
2023-02-27T23:21:50.075Z,24.45
2023-02-27T23:24:18.747Z,24.70
2023-02-27T23:26:48.007Z,24.65
2023-02-27T23:29:15.291Z,25.85
2023-02-27T23:31:42.541Z,24.33
2023-02-27T23:34:10.094Z,24.13
2023-02-27T23:36:38.227Z,24.67
2023-02-27T23:39:06.054Z,25.20
2023-02-27T23:44:27.243Z,29.48
2023-02-27T23:46:53.889Z,24.23
2023-02-27T23:49:20.666Z,23.73
2023-02-27T23:51:47.988Z,28.92
2023-02-27T23:54:14.623Z,27.45
2023-02-27T23:56:44.380Z,25.65
2023-02-27T23:59:11.089Z,24.38
